sensor_id;sensor_type;location;lat;lon;timestamp;P1;durP1;ratioP1;P2;durP2;ratioP2
11141;SDS011;5625;50.122;19.864;2022-12-18T00:00:07;60.03;;;28.70;;
11141;SDS011;5625;50.122;19.864;2022-12-18T00:02:37;53.73;;;28.67;;
11141;SDS011;5625;50.122;19.864;2022-12-18T00:05:06;65.67;;;30.17;;
11141;SDS011;5625;50.122;19.864;2022-12-18T00:07:35;57.33;;;27.77;;
11141;SDS011;5625;50.122;19.864;2022-12-18T00:10:04;54.00;;;27.27;;
11141;SDS011;5625;50.122;19.864;2022-12-18T00:12:33;53.13;;;28.20;;
11141;SDS011;5625;50.122;19.864;2022-12-18T00:15:01;54.50;;;27.63;;
11141;SDS011;5625;50.122;19.864;2022-12-18T00:17:30;54.20;;;26.80;;
11141;SDS011;5625;50.122;19.864;2022-12-18T00:19:59;53.00;;;25.67;;
11141;SDS011;5625;50.122;19.864;2022-12-18T00:22:27;51.83;;;27.10;;
11141;SDS011;5625;50.122;19.864;2022-12-18T00:24:55;44.27;;;23.73;;
11141;SDS011;5625;50.122;19.864;2022-12-18T00:27:23;42.23;;;23.03;;
11141;SDS011;5625;50.122;19.864;2022-12-18T00:29:51;41.87;;;22.53;;
11141;SDS011;5625;50.122;19.864;2022-12-18T00:32:19;36.60;;;21.57;;
11141;SDS011;5625;50.122;19.864;2022-12-18T00:34:47;39.03;;;22.60;;
11141;SDS011;5625;50.122;19.864;2022-12-18T00:37:16;38.97;;;21.70;;
11141;SDS011;5625;50.122;19.864;2022-12-18T00:39:47;36.10;;;20.80;;
11141;SDS011;5625;50.122;19.864;2022-12-18T00:42:16;35.70;;;19.33;;
11141;SDS011;5625;50.122;19.864;2022-12-18T00:45:01;37.00;;;20.40;;
11141;SDS011;5625;50.122;19.864;2022-12-18T00:47:37;31.37;;;18.33;;
11141;SDS011;5625;50.122;19.864;2022-12-18T00:50:06;33.07;;;19.43;;
11141;SDS011;5625;50.122;19.864;2022-12-18T00:52:36;31.13;;;17.20;;
11141;SDS011;5625;50.122;19.864;2022-12-18T00:55:04;32.20;;;18.10;;
11141;SDS011;5625;50.122;19.864;2022-12-18T00:57:33;30.90;;;17.50;;
11141;SDS011;5625;50.122;19.864;2022-12-18T01:00:01;28.17;;;17.83;;
11141;SDS011;5625;50.122;19.864;2022-12-18T01:02:30;29.27;;;17.47;;
11141;SDS011;5625;50.122;19.864;2022-12-18T01:04:58;28.03;;;17.37;;
11141;SDS011;5625;50.122;19.864;2022-12-18T01:07:26;28.43;;;16.80;;
11141;SDS011;5625;50.122;19.864;2022-12-18T01:09:55;29.73;;;17.47;;
11141;SDS011;5625;50.122;19.864;2022-12-18T01:12:24;29.80;;;18.03;;
11141;SDS011;5625;50.122;19.864;2022-12-18T01:14:52;30.03;;;17.73;;
11141;SDS011;5625;50.122;19.864;2022-12-18T01:17:21;29.50;;;18.17;;
11141;SDS011;5625;50.122;19.864;2022-12-18T01:19:49;32.33;;;18.77;;
11141;SDS011;5625;50.122;19.864;2022-12-18T01:22:17;35.07;;;19.07;;
11141;SDS011;5625;50.122;19.864;2022-12-18T01:24:45;33.80;;;19.63;;
11141;SDS011;5625;50.122;19.864;2022-12-18T01:27:14;34.70;;;18.90;;
11141;SDS011;5625;50.122;19.864;2022-12-18T01:29:43;35.40;;;20.17;;
11141;SDS011;5625;50.122;19.864;2022-12-18T01:32:11;33.27;;;19.50;;
11141;SDS011;5625;50.122;19.864;2022-12-18T01:34:39;31.93;;;19.00;;
11141;SDS011;5625;50.122;19.864;2022-12-18T01:37:07;36.90;;;19.77;;
11141;SDS011;5625;50.122;19.864;2022-12-18T01:39:35;31.73;;;19.33;;
11141;SDS011;5625;50.122;19.864;2022-12-18T01:42:05;39.53;;;21.23;;
11141;SDS011;5625;50.122;19.864;2022-12-18T01:47:49;31.47;;;18.87;;
11141;SDS011;5625;50.122;19.864;2022-12-18T01:50:20;35.83;;;20.97;;
11141;SDS011;5625;50.122;19.864;2022-12-18T01:52:52;33.67;;;20.00;;
11141;SDS011;5625;50.122;19.864;2022-12-18T01:55:25;36.10;;;19.50;;
11141;SDS011;5625;50.122;19.864;2022-12-18T01:57:56;33.87;;;20.33;;
11141;SDS011;5625;50.122;19.864;2022-12-18T02:00:28;35.47;;;20.87;;
11141;SDS011;5625;50.122;19.864;2022-12-18T02:02:56;29.33;;;18.33;;
11141;SDS011;5625;50.122;19.864;2022-12-18T02:05:27;30.37;;;18.70;;
11141;SDS011;5625;50.122;19.864;2022-12-18T02:08:06;32.83;;;18.43;;
11141;SDS011;5625;50.122;19.864;2022-12-18T02:10:40;32.80;;;19.17;;
11141;SDS011;5625;50.122;19.864;2022-12-18T02:13:14;34.13;;;18.30;;
11141;SDS011;5625;50.122;19.864;2022-12-18T02:15:54;33.63;;;18.03;;
11141;SDS011;5625;50.122;19.864;2022-12-18T02:18:28;30.83;;;18.13;;
11141;SDS011;5625;50.122;19.864;2022-12-18T02:21:00;32.27;;;19.33;;
11141;SDS011;5625;50.122;19.864;2022-12-18T02:23:39;35.07;;;19.67;;
11141;SDS011;5625;50.122;19.864;2022-12-18T02:26:17;34.77;;;18.67;;
11141;SDS011;5625;50.122;19.864;2022-12-18T02:28:51;35.27;;;19.37;;
11141;SDS011;5625;50.122;19.864;2022-12-18T02:31:23;37.60;;;20.53;;
11141;SDS011;5625;50.122;19.864;2022-12-18T02:33:53;36.83;;;20.83;;
11141;SDS011;5625;50.122;19.864;2022-12-18T02:36:24;41.03;;;21.23;;
11141;SDS011;5625;50.122;19.864;2022-12-18T02:38:56;33.97;;;21.73;;
11141;SDS011;5625;50.122;19.864;2022-12-18T02:41:26;38.73;;;21.07;;
11141;SDS011;5625;50.122;19.864;2022-12-18T02:43:56;34.93;;;21.00;;
11141;SDS011;5625;50.122;19.864;2022-12-18T02:46:31;36.80;;;21.00;;
11141;SDS011;5625;50.122;19.864;2022-12-18T02:49:12;35.70;;;20.40;;
11141;SDS011;5625;50.122;19.864;2022-12-18T02:51:53;38.57;;;21.47;;
11141;SDS011;5625;50.122;19.864;2022-12-18T02:54:31;37.73;;;21.00;;
11141;SDS011;5625;50.122;19.864;2022-12-18T02:57:11;37.63;;;21.53;;
11141;SDS011;5625;50.122;19.864;2022-12-18T02:59:47;39.07;;;20.80;;
11141;SDS011;5625;50.122;19.864;2022-12-18T03:02:22;34.27;;;20.30;;
11141;SDS011;5625;50.122;19.864;2022-12-18T03:04:55;41.03;;;21.77;;
11141;SDS011;5625;50.122;19.864;2022-12-18T03:07:33;37.47;;;21.73;;
11141;SDS011;5625;50.122;19.864;2022-12-18T03:10:05;37.00;;;20.97;;
11141;SDS011;5625;50.122;19.864;2022-12-18T03:12:37;35.67;;;20.80;;
11141;SDS011;5625;50.122;19.864;2022-12-18T03:15:13;37.87;;;19.40;;
11141;SDS011;5625;50.122;19.864;2022-12-18T03:17:48;42.07;;;21.50;;
11141;SDS011;5625;50.122;19.864;2022-12-18T03:20:22;35.53;;;19.57;;
11141;SDS011;5625;50.122;19.864;2022-12-18T03:22:53;38.17;;;20.60;;
11141;SDS011;5625;50.122;19.864;2022-12-18T03:25:27;38.73;;;21.37;;
11141;SDS011;5625;50.122;19.864;2022-12-18T03:27:59;37.57;;;21.67;;
11141;SDS011;5625;50.122;19.864;2022-12-18T03:30:31;39.40;;;21.97;;
11141;SDS011;5625;50.122;19.864;2022-12-18T03:33:05;39.23;;;22.70;;
11141;SDS011;5625;50.122;19.864;2022-12-18T03:35:37;38.97;;;22.30;;
11141;SDS011;5625;50.122;19.864;2022-12-18T03:38:09;41.37;;;21.80;;
11141;SDS011;5625;50.122;19.864;2022-12-18T03:40:41;42.07;;;21.83;;
11141;SDS011;5625;50.122;19.864;2022-12-18T03:43:18;35.07;;;20.33;;
11141;SDS011;5625;50.122;19.864;2022-12-18T03:45:56;41.37;;;22.53;;
11141;SDS011;5625;50.122;19.864;2022-12-18T03:48:31;40.53;;;22.33;;
11141;SDS011;5625;50.122;19.864;2022-12-18T03:51:05;42.00;;;22.83;;
11141;SDS011;5625;50.122;19.864;2022-12-18T03:53:36;42.60;;;22.30;;
11141;SDS011;5625;50.122;19.864;2022-12-18T03:56:09;41.50;;;22.73;;
11141;SDS011;5625;50.122;19.864;2022-12-18T03:58:40;36.23;;;22.77;;
11141;SDS011;5625;50.122;19.864;2022-12-18T04:01:12;39.80;;;22.57;;
11141;SDS011;5625;50.122;19.864;2022-12-18T04:03:42;40.00;;;22.30;;
11141;SDS011;5625;50.122;19.864;2022-12-18T04:06:13;42.80;;;20.80;;
11141;SDS011;5625;50.122;19.864;2022-12-18T04:08:42;40.73;;;22.70;;
11141;SDS011;5625;50.122;19.864;2022-12-18T04:11:11;42.47;;;23.17;;
11141;SDS011;5625;50.122;19.864;2022-12-18T04:13:41;39.73;;;21.87;;
11141;SDS011;5625;50.122;19.864;2022-12-18T04:16:10;38.07;;;21.87;;
11141;SDS011;5625;50.122;19.864;2022-12-18T04:18:38;40.93;;;21.37;;
11141;SDS011;5625;50.122;19.864;2022-12-18T04:21:07;42.87;;;23.47;;
11141;SDS011;5625;50.122;19.864;2022-12-18T04:23:35;38.50;;;22.53;;
11141;SDS011;5625;50.122;19.864;2022-12-18T04:26:04;40.97;;;22.80;;
11141;SDS011;5625;50.122;19.864;2022-12-18T04:28:32;44.80;;;22.67;;
11141;SDS011;5625;50.122;19.864;2022-12-18T04:31:01;40.47;;;22.07;;
11141;SDS011;5625;50.122;19.864;2022-12-18T04:33:30;45.00;;;23.97;;
11141;SDS011;5625;50.122;19.864;2022-12-18T04:35:58;41.87;;;23.10;;
11141;SDS011;5625;50.122;19.864;2022-12-18T04:38:26;45.07;;;23.83;;
11141;SDS011;5625;50.122;19.864;2022-12-18T04:40:54;41.63;;;22.67;;
11141;SDS011;5625;50.122;19.864;2022-12-18T04:43:22;42.97;;;23.67;;
11141;SDS011;5625;50.122;19.864;2022-12-18T04:45:50;44.23;;;23.73;;
11141;SDS011;5625;50.122;19.864;2022-12-18T04:48:19;44.50;;;24.97;;
11141;SDS011;5625;50.122;19.864;2022-12-18T04:50:47;48.40;;;26.80;;
11141;SDS011;5625;50.122;19.864;2022-12-18T04:53:15;45.27;;;25.70;;
11141;SDS011;5625;50.122;19.864;2022-12-18T04:55:43;50.33;;;26.83;;
11141;SDS011;5625;50.122;19.864;2022-12-18T04:58:14;47.20;;;25.80;;
11141;SDS011;5625;50.122;19.864;2022-12-18T05:00:42;55.63;;;28.40;;
11141;SDS011;5625;50.122;19.864;2022-12-18T05:03:11;49.80;;;26.93;;
11141;SDS011;5625;50.122;19.864;2022-12-18T05:05:40;48.03;;;26.00;;
11141;SDS011;5625;50.122;19.864;2022-12-18T05:08:08;49.93;;;25.80;;
11141;SDS011;5625;50.122;19.864;2022-12-18T05:10:36;44.63;;;25.93;;
11141;SDS011;5625;50.122;19.864;2022-12-18T05:13:04;51.70;;;25.73;;
11141;SDS011;5625;50.122;19.864;2022-12-18T05:15:32;44.37;;;23.20;;
11141;SDS011;5625;50.122;19.864;2022-12-18T05:18:01;43.87;;;24.77;;
11141;SDS011;5625;50.122;19.864;2022-12-18T05:20:30;48.67;;;24.53;;
11141;SDS011;5625;50.122;19.864;2022-12-18T05:22:59;49.63;;;24.27;;
11141;SDS011;5625;50.122;19.864;2022-12-18T05:25:27;47.33;;;24.27;;
11141;SDS011;5625;50.122;19.864;2022-12-18T05:27:56;48.97;;;25.50;;
11141;SDS011;5625;50.122;19.864;2022-12-18T05:30:25;46.57;;;26.03;;
11141;SDS011;5625;50.122;19.864;2022-12-18T05:32:53;47.33;;;25.27;;
11141;SDS011;5625;50.122;19.864;2022-12-18T05:35:21;47.03;;;25.37;;
11141;SDS011;5625;50.122;19.864;2022-12-18T05:37:49;50.50;;;27.27;;
11141;SDS011;5625;50.122;19.864;2022-12-18T05:40:19;52.97;;;26.30;;
11141;SDS011;5625;50.122;19.864;2022-12-18T05:42:47;53.90;;;26.40;;
11141;SDS011;5625;50.122;19.864;2022-12-18T05:45:15;49.77;;;26.47;;
11141;SDS011;5625;50.122;19.864;2022-12-18T05:47:43;45.20;;;24.33;;
11141;SDS011;5625;50.122;19.864;2022-12-18T05:50:11;49.40;;;27.60;;
11141;SDS011;5625;50.122;19.864;2022-12-18T05:52:39;52.77;;;27.00;;
11141;SDS011;5625;50.122;19.864;2022-12-18T05:55:07;48.70;;;26.33;;
11141;SDS011;5625;50.122;19.864;2022-12-18T05:57:37;49.67;;;25.43;;
11141;SDS011;5625;50.122;19.864;2022-12-18T06:00:05;49.17;;;25.40;;
11141;SDS011;5625;50.122;19.864;2022-12-18T06:02:34;53.53;;;25.83;;
11141;SDS011;5625;50.122;19.864;2022-12-18T06:05:02;48.90;;;24.50;;
11141;SDS011;5625;50.122;19.864;2022-12-18T06:07:31;47.97;;;25.87;;
11141;SDS011;5625;50.122;19.864;2022-12-18T06:09:59;50.77;;;26.20;;
11141;SDS011;5625;50.122;19.864;2022-12-18T06:12:27;50.67;;;26.17;;
11141;SDS011;5625;50.122;19.864;2022-12-18T06:14:56;48.07;;;26.83;;
11141;SDS011;5625;50.122;19.864;2022-12-18T06:17:27;50.53;;;26.20;;
11141;SDS011;5625;50.122;19.864;2022-12-18T06:19:56;52.20;;;26.50;;
11141;SDS011;5625;50.122;19.864;2022-12-18T06:22:24;49.77;;;25.83;;
11141;SDS011;5625;50.122;19.864;2022-12-18T06:24:52;51.80;;;25.90;;
11141;SDS011;5625;50.122;19.864;2022-12-18T06:27:21;47.70;;;25.83;;
11141;SDS011;5625;50.122;19.864;2022-12-18T06:29:49;48.73;;;25.40;;
11141;SDS011;5625;50.122;19.864;2022-12-18T06:32:18;49.53;;;27.17;;
11141;SDS011;5625;50.122;19.864;2022-12-18T06:34:46;51.97;;;26.87;;
11141;SDS011;5625;50.122;19.864;2022-12-18T06:37:14;52.63;;;26.30;;
11141;SDS011;5625;50.122;19.864;2022-12-18T06:39:42;52.00;;;27.50;;
11141;SDS011;5625;50.122;19.864;2022-12-18T06:42:10;52.57;;;26.83;;
11141;SDS011;5625;50.122;19.864;2022-12-18T06:44:39;52.97;;;26.53;;
11141;SDS011;5625;50.122;19.864;2022-12-18T06:47:07;49.77;;;27.17;;
11141;SDS011;5625;50.122;19.864;2022-12-18T06:49:36;52.80;;;27.20;;
11141;SDS011;5625;50.122;19.864;2022-12-18T06:52:04;52.20;;;26.47;;
11141;SDS011;5625;50.122;19.864;2022-12-18T06:54:32;53.97;;;27.50;;
11141;SDS011;5625;50.122;19.864;2022-12-18T06:57:00;53.23;;;26.67;;
11141;SDS011;5625;50.122;19.864;2022-12-18T06:59:28;55.77;;;27.73;;
11141;SDS011;5625;50.122;19.864;2022-12-18T07:01:56;51.27;;;26.40;;
11141;SDS011;5625;50.122;19.864;2022-12-18T07:04:27;52.97;;;26.77;;
11141;SDS011;5625;50.122;19.864;2022-12-18T07:06:57;52.67;;;27.47;;
11141;SDS011;5625;50.122;19.864;2022-12-18T07:09:25;55.50;;;28.07;;
11141;SDS011;5625;50.122;19.864;2022-12-18T07:11:56;53.37;;;27.97;;
11141;SDS011;5625;50.122;19.864;2022-12-18T07:14:24;56.13;;;28.90;;
11141;SDS011;5625;50.122;19.864;2022-12-18T07:16:52;56.37;;;27.67;;
11141;SDS011;5625;50.122;19.864;2022-12-18T07:19:21;54.33;;;28.27;;
11141;SDS011;5625;50.122;19.864;2022-12-18T07:21:54;50.77;;;27.07;;
11141;SDS011;5625;50.122;19.864;2022-12-18T07:24:23;57.07;;;27.30;;
11141;SDS011;5625;50.122;19.864;2022-12-18T07:26:54;54.40;;;27.33;;
11141;SDS011;5625;50.122;19.864;2022-12-18T07:29:22;55.47;;;28.83;;
11141;SDS011;5625;50.122;19.864;2022-12-18T07:31:50;54.37;;;28.57;;
11141;SDS011;5625;50.122;19.864;2022-12-18T07:34:18;56.13;;;28.37;;
11141;SDS011;5625;50.122;19.864;2022-12-18T07:36:46;55.07;;;28.17;;
11141;SDS011;5625;50.122;19.864;2022-12-18T07:39:14;49.63;;;27.30;;
11141;SDS011;5625;50.122;19.864;2022-12-18T07:41:44;53.47;;;28.00;;
11141;SDS011;5625;50.122;19.864;2022-12-18T07:44:33;54.30;;;28.00;;
11141;SDS011;5625;50.122;19.864;2022-12-18T07:47:01;52.70;;;25.93;;
11141;SDS011;5625;50.122;19.864;2022-12-18T07:49:37;49.47;;;26.73;;
11141;SDS011;5625;50.122;19.864;2022-12-18T07:52:05;51.83;;;28.03;;
11141;SDS011;5625;50.122;19.864;2022-12-18T07:54:33;52.57;;;27.77;;
11141;SDS011;5625;50.122;19.864;2022-12-18T07:57:02;51.67;;;26.97;;
11141;SDS011;5625;50.122;19.864;2022-12-18T07:59:50;52.43;;;27.73;;
11141;SDS011;5625;50.122;19.864;2022-12-18T08:02:18;56.53;;;28.47;;
11141;SDS011;5625;50.122;19.864;2022-12-18T08:04:47;52.03;;;26.70;;
11141;SDS011;5625;50.122;19.864;2022-12-18T08:07:15;52.00;;;27.67;;
11141;SDS011;5625;50.122;19.864;2022-12-18T08:09:43;52.30;;;28.20;;
11141;SDS011;5625;50.122;19.864;2022-12-18T08:12:12;51.77;;;27.90;;
11141;SDS011;5625;50.122;19.864;2022-12-18T08:14:42;57.03;;;29.23;;
11141;SDS011;5625;50.122;19.864;2022-12-18T08:17:10;52.30;;;28.83;;
11141;SDS011;5625;50.122;19.864;2022-12-18T08:19:38;51.13;;;29.57;;
11141;SDS011;5625;50.122;19.864;2022-12-18T08:22:06;49.43;;;27.20;;
11141;SDS011;5625;50.122;19.864;2022-12-18T08:24:34;53.47;;;28.67;;
11141;SDS011;5625;50.122;19.864;2022-12-18T08:27:02;52.07;;;27.47;;
11141;SDS011;5625;50.122;19.864;2022-12-18T08:29:51;53.83;;;28.43;;
11141;SDS011;5625;50.122;19.864;2022-12-18T08:32:19;50.47;;;28.27;;
11141;SDS011;5625;50.122;19.864;2022-12-18T08:34:48;59.80;;;29.80;;
11141;SDS011;5625;50.122;19.864;2022-12-18T08:37:16;49.90;;;28.60;;
11141;SDS011;5625;50.122;19.864;2022-12-18T08:39:44;50.30;;;27.63;;
11141;SDS011;5625;50.122;19.864;2022-12-18T08:42:12;57.13;;;29.47;;
11141;SDS011;5625;50.122;19.864;2022-12-18T08:44:58;51.77;;;28.37;;
11141;SDS011;5625;50.122;19.864;2022-12-18T08:47:26;56.70;;;31.10;;
11141;SDS011;5625;50.122;19.864;2022-12-18T08:49:54;50.93;;;28.60;;
11141;SDS011;5625;50.122;19.864;2022-12-18T08:52:22;51.90;;;28.17;;
11141;SDS011;5625;50.122;19.864;2022-12-18T08:54:50;54.97;;;30.27;;
11141;SDS011;5625;50.122;19.864;2022-12-18T08:57:18;58.67;;;29.67;;
11141;SDS011;5625;50.122;19.864;2022-12-18T08:59:49;53.20;;;29.20;;
11141;SDS011;5625;50.122;19.864;2022-12-18T09:02:19;56.83;;;29.30;;
11141;SDS011;5625;50.122;19.864;2022-12-18T09:04:47;50.27;;;28.50;;
11141;SDS011;5625;50.122;19.864;2022-12-18T09:07:22;54.37;;;29.90;;
11141;SDS011;5625;50.122;19.864;2022-12-18T09:09:50;57.13;;;30.10;;
11141;SDS011;5625;50.122;19.864;2022-12-18T09:12:18;56.33;;;31.40;;
11141;SDS011;5625;50.122;19.864;2022-12-18T09:14:46;55.80;;;29.70;;
11141;SDS011;5625;50.122;19.864;2022-12-18T09:17:14;56.07;;;30.57;;
11141;SDS011;5625;50.122;19.864;2022-12-18T09:19:44;56.53;;;29.90;;
11141;SDS011;5625;50.122;19.864;2022-12-18T09:22:12;58.70;;;32.10;;
11141;SDS011;5625;50.122;19.864;2022-12-18T09:24:40;59.70;;;32.30;;
11141;SDS011;5625;50.122;19.864;2022-12-18T09:27:08;62.37;;;32.20;;
11141;SDS011;5625;50.122;19.864;2022-12-18T09:29:36;57.20;;;31.53;;
11141;SDS011;5625;50.122;19.864;2022-12-18T09:32:04;54.10;;;29.50;;
11141;SDS011;5625;50.122;19.864;2022-12-18T09:34:35;55.17;;;31.20;;
11141;SDS011;5625;50.122;19.864;2022-12-18T09:37:04;53.27;;;30.40;;
11141;SDS011;5625;50.122;19.864;2022-12-18T09:39:35;56.73;;;31.37;;
11141;SDS011;5625;50.122;19.864;2022-12-18T09:42:03;56.93;;;31.80;;
11141;SDS011;5625;50.122;19.864;2022-12-18T09:44:33;56.67;;;31.23;;
11141;SDS011;5625;50.122;19.864;2022-12-18T09:47:11;56.00;;;31.77;;
11141;SDS011;5625;50.122;19.864;2022-12-18T09:49:42;56.70;;;31.67;;
11141;SDS011;5625;50.122;19.864;2022-12-18T09:52:16;53.07;;;31.37;;
11141;SDS011;5625;50.122;19.864;2022-12-18T09:54:50;56.37;;;31.83;;
11141;SDS011;5625;50.122;19.864;2022-12-18T09:57:23;51.70;;;29.67;;
11141;SDS011;5625;50.122;19.864;2022-12-18T09:59:53;57.90;;;31.07;;
11141;SDS011;5625;50.122;19.864;2022-12-18T10:02:26;59.00;;;31.63;;
11141;SDS011;5625;50.122;19.864;2022-12-18T10:05:03;53.23;;;30.73;;
11141;SDS011;5625;50.122;19.864;2022-12-18T10:07:38;57.07;;;30.70;;
11141;SDS011;5625;50.122;19.864;2022-12-18T10:10:16;54.60;;;31.23;;
11141;SDS011;5625;50.122;19.864;2022-12-18T10:13:01;53.73;;;30.40;;
11141;SDS011;5625;50.122;19.864;2022-12-18T10:15:38;55.40;;;29.33;;
11141;SDS011;5625;50.122;19.864;2022-12-18T10:18:15;50.10;;;30.03;;
11141;SDS011;5625;50.122;19.864;2022-12-18T10:20:52;61.07;;;33.20;;
11141;SDS011;5625;50.122;19.864;2022-12-18T10:23:28;60.03;;;31.50;;
11141;SDS011;5625;50.122;19.864;2022-12-18T10:26:03;53.63;;;30.73;;
11141;SDS011;5625;50.122;19.864;2022-12-18T10:28:33;52.10;;;29.17;;
11141;SDS011;5625;50.122;19.864;2022-12-18T10:31:04;49.30;;;26.57;;
11141;SDS011;5625;50.122;19.864;2022-12-18T10:33:35;46.77;;;27.90;;
11141;SDS011;5625;50.122;19.864;2022-12-18T10:36:04;49.03;;;26.83;;
11141;SDS011;5625;50.122;19.864;2022-12-18T10:38:33;46.87;;;26.80;;
11141;SDS011;5625;50.122;19.864;2022-12-18T10:41:03;49.97;;;27.23;;
11141;SDS011;5625;50.122;19.864;2022-12-18T10:43:32;45.47;;;27.77;;
11141;SDS011;5625;50.122;19.864;2022-12-18T10:46:03;47.20;;;27.47;;
11141;SDS011;5625;50.122;19.864;2022-12-18T10:48:47;43.43;;;24.47;;
11141;SDS011;5625;50.122;19.864;2022-12-18T10:51:20;45.20;;;25.47;;
11141;SDS011;5625;50.122;19.864;2022-12-18T10:53:53;44.40;;;24.93;;
11141;SDS011;5625;50.122;19.864;2022-12-18T10:56:24;40.97;;;23.63;;
11141;SDS011;5625;50.122;19.864;2022-12-18T10:58:55;38.43;;;21.83;;
11141;SDS011;5625;50.122;19.864;2022-12-18T11:01:25;37.63;;;21.53;;
11141;SDS011;5625;50.122;19.864;2022-12-18T11:04:04;37.40;;;19.77;;
11141;SDS011;5625;50.122;19.864;2022-12-18T11:06:36;36.30;;;19.67;;
11141;SDS011;5625;50.122;19.864;2022-12-18T11:09:23;32.03;;;19.23;;
11141;SDS011;5625;50.122;19.864;2022-12-18T11:11:53;30.27;;;17.83;;
11141;SDS011;5625;50.122;19.864;2022-12-18T11:14:23;33.63;;;17.73;;
11141;SDS011;5625;50.122;19.864;2022-12-18T11:16:54;28.27;;;15.93;;
11141;SDS011;5625;50.122;19.864;2022-12-18T11:19:44;29.70;;;16.27;;
11141;SDS011;5625;50.122;19.864;2022-12-18T11:22:19;31.37;;;16.97;;
11141;SDS011;5625;50.122;19.864;2022-12-18T11:24:55;29.53;;;16.70;;
11141;SDS011;5625;50.122;19.864;2022-12-18T11:27:49;28.67;;;16.77;;
11141;SDS011;5625;50.122;19.864;2022-12-18T11:30:24;32.27;;;18.37;;
11141;SDS011;5625;50.122;19.864;2022-12-18T11:32:54;29.10;;;17.07;;
11141;SDS011;5625;50.122;19.864;2022-12-18T11:35:30;29.37;;;17.30;;
11141;SDS011;5625;50.122;19.864;2022-12-18T11:38:04;35.60;;;18.10;;
11141;SDS011;5625;50.122;19.864;2022-12-18T11:40:47;31.93;;;18.30;;
11141;SDS011;5625;50.122;19.864;2022-12-18T11:43:21;32.80;;;18.40;;
11141;SDS011;5625;50.122;19.864;2022-12-18T11:45:55;30.90;;;18.07;;
11141;SDS011;5625;50.122;19.864;2022-12-18T11:48:30;33.03;;;18.70;;
11141;SDS011;5625;50.122;19.864;2022-12-18T11:51:01;33.93;;;18.27;;
11141;SDS011;5625;50.122;19.864;2022-12-18T11:53:32;34.37;;;19.40;;
11141;SDS011;5625;50.122;19.864;2022-12-18T11:56:11;33.30;;;18.63;;
11141;SDS011;5625;50.122;19.864;2022-12-18T11:58:58;34.10;;;19.60;;
11141;SDS011;5625;50.122;19.864;2022-12-18T12:01:39;36.03;;;21.13;;
11141;SDS011;5625;50.122;19.864;2022-12-18T12:04:29;39.70;;;21.93;;
11141;SDS011;5625;50.122;19.864;2022-12-18T12:07:18;38.03;;;20.87;;
11141;SDS011;5625;50.122;19.864;2022-12-18T12:09:58;35.70;;;20.37;;
11141;SDS011;5625;50.122;19.864;2022-12-18T12:12:46;35.57;;;19.37;;
11141;SDS011;5625;50.122;19.864;2022-12-18T12:15:25;41.20;;;21.00;;
11141;SDS011;5625;50.122;19.864;2022-12-18T12:18:04;42.50;;;23.93;;
11141;SDS011;5625;50.122;19.864;2022-12-18T12:20:44;37.47;;;21.03;;
11141;SDS011;5625;50.122;19.864;2022-12-18T12:23:23;39.17;;;21.37;;
11141;SDS011;5625;50.122;19.864;2022-12-18T12:26:01;39.23;;;20.70;;
11141;SDS011;5625;50.122;19.864;2022-12-18T12:31:26;42.33;;;23.30;;
11141;SDS011;5625;50.122;19.864;2022-12-18T12:34:11;43.10;;;24.80;;
11141;SDS011;5625;50.122;19.864;2022-12-18T12:36:48;43.07;;;25.70;;
11141;SDS011;5625;50.122;19.864;2022-12-18T12:39:30;42.63;;;24.63;;
11141;SDS011;5625;50.122;19.864;2022-12-18T12:42:00;43.60;;;23.13;;
11141;SDS011;5625;50.122;19.864;2022-12-18T12:44:49;40.83;;;21.93;;
11141;SDS011;5625;50.122;19.864;2022-12-18T12:47:23;39.03;;;21.83;;
11141;SDS011;5625;50.122;19.864;2022-12-18T12:49:55;34.57;;;20.93;;
11141;SDS011;5625;50.122;19.864;2022-12-18T12:52:27;38.17;;;21.27;;
11141;SDS011;5625;50.122;19.864;2022-12-18T12:55:00;47.83;;;26.93;;
11141;SDS011;5625;50.122;19.864;2022-12-18T12:57:40;64.73;;;34.63;;
11141;SDS011;5625;50.122;19.864;2022-12-18T13:00:19;63.70;;;33.13;;
11141;SDS011;5625;50.122;19.864;2022-12-18T13:02:51;50.03;;;28.13;;
11141;SDS011;5625;50.122;19.864;2022-12-18T13:05:25;49.13;;;26.73;;
11141;SDS011;5625;50.122;19.864;2022-12-18T13:08:00;44.33;;;25.57;;
11141;SDS011;5625;50.122;19.864;2022-12-18T13:10:33;40.87;;;23.77;;
11141;SDS011;5625;50.122;19.864;2022-12-18T13:13:05;44.83;;;24.63;;
11141;SDS011;5625;50.122;19.864;2022-12-18T13:15:40;41.73;;;22.60;;
11141;SDS011;5625;50.122;19.864;2022-12-18T13:18:13;38.00;;;22.03;;
11141;SDS011;5625;50.122;19.864;2022-12-18T13:20:45;41.87;;;22.10;;
11141;SDS011;5625;50.122;19.864;2022-12-18T13:23:28;39.17;;;23.10;;
11141;SDS011;5625;50.122;19.864;2022-12-18T13:28:58;44.40;;;23.57;;
11141;SDS011;5625;50.122;19.864;2022-12-18T13:34:28;43.63;;;23.93;;
11141;SDS011;5625;50.122;19.864;2022-12-18T13:40:00;41.23;;;22.97;;
11141;SDS011;5625;50.122;19.864;2022-12-18T13:42:34;45.00;;;23.80;;
11141;SDS011;5625;50.122;19.864;2022-12-18T13:48:20;41.80;;;21.57;;
11141;SDS011;5625;50.122;19.864;2022-12-18T13:50:57;40.27;;;22.70;;
11141;SDS011;5625;50.122;19.864;2022-12-18T13:53:33;39.03;;;22.37;;
11141;SDS011;5625;50.122;19.864;2022-12-18T13:56:05;40.47;;;21.23;;
11141;SDS011;5625;50.122;19.864;2022-12-18T13:58:33;42.97;;;24.13;;
11141;SDS011;5625;50.122;19.864;2022-12-18T14:01:01;39.40;;;23.63;;
11141;SDS011;5625;50.122;19.864;2022-12-18T14:03:32;44.93;;;24.40;;
11141;SDS011;5625;50.122;19.864;2022-12-18T14:06:02;47.00;;;25.40;;
11141;SDS011;5625;50.122;19.864;2022-12-18T14:08:37;45.07;;;26.17;;
11141;SDS011;5625;50.122;19.864;2022-12-18T14:11:16;48.80;;;27.13;;
11141;SDS011;5625;50.122;19.864;2022-12-18T14:13:48;47.13;;;26.93;;
11141;SDS011;5625;50.122;19.864;2022-12-18T14:16:17;49.03;;;27.60;;
11141;SDS011;5625;50.122;19.864;2022-12-18T14:18:48;49.23;;;27.37;;
11141;SDS011;5625;50.122;19.864;2022-12-18T14:21:22;51.80;;;28.73;;
11141;SDS011;5625;50.122;19.864;2022-12-18T14:24:05;51.17;;;27.97;;
11141;SDS011;5625;50.122;19.864;2022-12-18T14:26:44;53.23;;;29.17;;
11141;SDS011;5625;50.122;19.864;2022-12-18T14:29:20;52.67;;;30.73;;
11141;SDS011;5625;50.122;19.864;2022-12-18T14:32:10;52.87;;;29.70;;
11141;SDS011;5625;50.122;19.864;2022-12-18T14:34:45;57.37;;;31.97;;
11141;SDS011;5625;50.122;19.864;2022-12-18T14:37:16;57.70;;;32.57;;
11141;SDS011;5625;50.122;19.864;2022-12-18T14:39:56;59.70;;;32.90;;
11141;SDS011;5625;50.122;19.864;2022-12-18T14:42:32;62.27;;;33.10;;
11141;SDS011;5625;50.122;19.864;2022-12-18T14:48:07;66.27;;;35.43;;
11141;SDS011;5625;50.122;19.864;2022-12-18T14:50:55;62.63;;;35.03;;
11141;SDS011;5625;50.122;19.864;2022-12-18T14:56:18;64.37;;;34.20;;
11141;SDS011;5625;50.122;19.864;2022-12-18T14:58:51;59.07;;;32.50;;
11141;SDS011;5625;50.122;19.864;2022-12-18T15:01:22;62.63;;;33.70;;
11141;SDS011;5625;50.122;19.864;2022-12-18T15:03:55;60.33;;;33.70;;
11141;SDS011;5625;50.122;19.864;2022-12-18T15:06:30;61.40;;;32.60;;
11141;SDS011;5625;50.122;19.864;2022-12-18T15:09:01;59.33;;;32.03;;
11141;SDS011;5625;50.122;19.864;2022-12-18T15:11:35;59.67;;;33.77;;